createdAt,value
2018-10-09T00:00:46.750Z,0.00
2018-10-09T00:01:46.636Z,0.00
2018-10-09T00:02:46.631Z,0.00
2018-10-09T00:03:46.619Z,0.00
2018-10-09T00:04:46.629Z,0.00
2018-10-09T00:05:46.601Z,0.00
2018-10-09T00:06:46.588Z,0.00
2018-10-09T00:07:46.577Z,0.00
2018-10-09T00:08:46.563Z,0.00
2018-10-09T00:09:46.585Z,0.00
2018-10-09T00:10:46.547Z,0.00
2018-10-09T00:11:46.533Z,0.00
2018-10-09T00:12:46.524Z,0.00
2018-10-09T00:13:46.512Z,0.00
2018-10-09T00:14:46.494Z,0.00
2018-10-09T00:15:46.513Z,0.00
2018-10-09T00:16:46.472Z,0.00
2018-10-09T00:17:46.465Z,0.00
2018-10-09T00:18:46.459Z,0.00
2018-10-09T00:19:46.441Z,0.00
2018-10-09T00:20:46.453Z,0.00
2018-10-09T00:21:46.420Z,0.00
2018-10-09T00:22:46.419Z,0.00
2018-10-09T00:23:46.400Z,0.00
2018-10-09T00:24:46.388Z,0.00
2018-10-09T00:25:46.407Z,0.00
2018-10-09T00:26:46.364Z,0.00
2018-10-09T00:27:46.353Z,0.00
2018-10-09T00:28:46.344Z,0.00
2018-10-09T00:29:46.330Z,0.00
2018-10-09T00:30:46.362Z,0.00
2018-10-09T00:31:46.324Z,0.00
2018-10-09T00:32:46.304Z,0.00
2018-10-09T00:33:46.295Z,0.00
2018-10-09T00:34:46.283Z,0.00
2018-10-09T00:35:46.266Z,0.00
2018-10-09T00:36:46.285Z,0.00
2018-10-09T00:37:46.245Z,0.00
2018-10-09T00:38:46.245Z,0.00
2018-10-09T00:39:46.220Z,0.00
2018-10-09T00:40:46.211Z,0.00
2018-10-09T00:41:46.223Z,0.00
2018-10-09T00:42:46.191Z,0.00
2018-10-09T00:43:46.183Z,0.00
2018-10-09T00:44:46.173Z,0.00
2018-10-09T00:45:46.166Z,0.00
2018-10-09T00:46:46.181Z,0.00
2018-10-09T00:47:46.141Z,0.00
2018-10-09T00:48:46.121Z,0.00
2018-10-09T00:49:46.113Z,0.00
2018-10-09T00:50:46.111Z,0.00
2018-10-09T00:51:46.093Z,0.00
2018-10-09T00:52:46.104Z,0.00
2018-10-09T00:53:46.069Z,0.00
2018-10-09T00:54:46.064Z,0.00
2018-10-09T00:55:46.046Z,0.00
2018-10-09T00:56:46.039Z,0.00
2018-10-09T00:57:46.060Z,0.00
2018-10-09T00:58:46.022Z,0.00
2018-10-09T00:59:46.003Z,0.00
2018-10-09T01:00:45.994Z,0.00
2018-10-09T01:01:45.981Z,0.00
2018-10-09T01:02:46.016Z,0.00
2018-10-09T01:03:45.961Z,0.00
2018-10-09T01:04:45.949Z,0.00
2018-10-09T01:05:45.938Z,0.00
2018-10-09T01:06:45.933Z,0.00
2018-10-09T01:07:45.917Z,0.00
2018-10-09T01:08:45.935Z,0.00
2018-10-09T01:09:45.901Z,0.00
2018-10-09T01:10:45.882Z,0.00
2018-10-09T01:11:45.879Z,0.00
2018-10-09T01:12:45.862Z,0.00
2018-10-09T01:13:45.890Z,0.00
2018-10-09T01:14:45.873Z,0.00
2018-10-09T01:15:45.837Z,0.00
2018-10-09T01:16:45.820Z,0.00
2018-10-09T01:17:45.813Z,0.00
2018-10-09T01:18:45.803Z,0.00
2018-10-09T01:19:45.809Z,0.00
2018-10-09T01:20:45.774Z,0.00
2018-10-09T01:21:45.786Z,0.00
2018-10-09T01:22:45.757Z,0.00
2018-10-09T01:23:45.745Z,0.00
2018-10-09T01:24:45.792Z,0.00
2018-10-09T01:25:45.724Z,0.00
2018-10-09T01:26:45.713Z,0.00
2018-10-09T01:27:45.700Z,0.00
2018-10-09T01:28:45.685Z,0.00
2018-10-09T01:29:45.727Z,0.00
2018-10-09T01:30:45.677Z,0.00
2018-10-09T01:31:45.653Z,0.00
2018-10-09T01:32:45.653Z,0.00
2018-10-09T01:33:45.631Z,0.00
2018-10-09T01:34:45.691Z,0.00
2018-10-09T01:35:45.609Z,0.00
2018-10-09T01:36:45.601Z,0.00
2018-10-09T01:37:45.611Z,0.00
2018-10-09T01:38:45.581Z,0.00
2018-10-09T01:39:45.587Z,0.00
2018-10-09T01:40:45.554Z,0.00
2018-10-09T01:41:45.544Z,0.00
2018-10-09T01:42:45.543Z,0.00
2018-10-09T01:43:45.524Z,0.00
2018-10-09T01:44:45.547Z,0.00
2018-10-09T01:45:45.507Z,0.00
2018-10-09T01:46:45.497Z,0.00
2018-10-09T01:47:45.478Z,0.00
2018-10-09T01:48:45.472Z,0.00
2018-10-09T01:49:45.456Z,0.00
2018-10-09T01:50:45.477Z,0.00
2018-10-09T01:51:45.435Z,0.00
2018-10-09T01:52:45.428Z,0.00
2018-10-09T01:53:45.416Z,0.00
2018-10-09T01:54:45.411Z,0.00
2018-10-09T01:55:45.424Z,0.00
2018-10-09T01:56:45.383Z,0.00
2018-10-09T01:57:45.381Z,0.00
2018-10-09T01:58:45.358Z,0.00
2018-10-09T01:59:45.346Z,0.00
2018-10-09T02:00:45.368Z,0.00
2018-10-09T02:01:45.328Z,0.00
2018-10-09T02:02:45.324Z,0.00
2018-10-09T02:03:45.310Z,0.00
2018-10-09T02:04:45.299Z,0.00
2018-10-09T02:05:45.284Z,0.00
2018-10-09T02:06:45.303Z,0.00
2018-10-09T02:07:45.269Z,0.00
2018-10-09T02:08:45.257Z,0.00
2018-10-09T02:09:45.241Z,0.00
2018-10-09T02:10:45.234Z,0.00
2018-10-09T02:11:45.243Z,0.00
2018-10-09T02:12:45.211Z,0.00
2018-10-09T02:13:45.197Z,0.00
2018-10-09T02:14:45.182Z,0.00
2018-10-09T02:15:45.176Z,0.00
2018-10-09T02:16:45.214Z,0.00
2018-10-09T02:17:45.157Z,0.00
2018-10-09T02:18:45.141Z,0.00
2018-10-09T02:19:45.131Z,0.00
2018-10-09T02:20:45.124Z,0.00
2018-10-09T02:21:45.110Z,0.00
2018-10-09T02:22:45.124Z,0.00
2018-10-09T02:23:45.089Z,0.00
2018-10-09T02:24:45.083Z,0.00
2018-10-09T02:25:45.073Z,0.00
2018-10-09T02:26:45.071Z,0.00
2018-10-09T02:27:45.069Z,0.00
2018-10-09T02:28:45.041Z,0.00
2018-10-09T02:29:45.024Z,0.00
2018-10-09T02:30:45.012Z,0.00
2018-10-09T02:31:45.007Z,0.00
2018-10-09T02:32:44.987Z,0.00
2018-10-09T02:33:45.178Z,0.00
2018-10-09T02:34:44.973Z,0.00
2018-10-09T02:35:44.971Z,0.00
2018-10-09T02:36:44.946Z,0.00
2018-10-09T02:37:44.933Z,0.00
2018-10-09T02:38:44.959Z,0.00
2018-10-09T02:39:44.912Z,0.00
2018-10-09T02:40:44.912Z,0.00
2018-10-09T02:41:44.891Z,0.00
2018-10-09T02:42:44.878Z,0.00
2018-10-09T02:43:44.867Z,0.00
2018-10-09T02:44:44.883Z,0.00
2018-10-09T02:45:44.858Z,0.00
2018-10-09T02:46:44.854Z,0.00
2018-10-09T02:47:44.829Z,0.00
2018-10-09T02:48:44.811Z,0.00
2018-10-09T02:49:44.833Z,0.00
2018-10-09T02:50:44.798Z,0.00
2018-10-09T02:51:44.779Z,0.00
2018-10-09T02:52:44.773Z,0.00
2018-10-09T02:53:44.760Z,0.00
2018-10-09T02:54:44.775Z,0.00
2018-10-09T02:55:44.743Z,0.00
2018-10-09T02:56:44.724Z,0.00
2018-10-09T02:57:44.716Z,0.00
2018-10-09T02:58:44.709Z,0.00
2018-10-09T02:59:44.728Z,0.00
2018-10-09T03:00:44.681Z,0.00
2018-10-09T03:01:44.671Z,0.00
2018-10-09T03:02:44.684Z,0.00
2018-10-09T03:03:44.653Z,0.00
2018-10-09T03:04:44.650Z,0.00
2018-10-09T03:05:44.666Z,0.00
2018-10-09T03:06:44.628Z,0.00
2018-10-09T03:07:44.609Z,0.00
2018-10-09T03:08:44.613Z,0.00
2018-10-09T03:09:44.584Z,0.00
2018-10-09T03:10:44.602Z,0.00
2018-10-09T03:11:44.567Z,0.00
2018-10-09T03:12:44.564Z,0.00
2018-10-09T03:13:44.540Z,0.00
2018-10-09T03:14:44.539Z,0.00
2018-10-09T03:15:44.540Z,0.00
2018-10-09T03:16:44.513Z,0.00
2018-10-09T03:17:44.494Z,0.00
2018-10-09T03:18:44.485Z,0.00
2018-10-09T03:19:44.478Z,0.00
2018-10-09T03:20:44.546Z,0.00
2018-10-09T03:21:44.468Z,0.00
2018-10-09T03:22:44.441Z,0.00
2018-10-09T03:23:44.430Z,0.00
2018-10-09T03:24:44.420Z,0.00
2018-10-09T03:25:44.448Z,0.00
2018-10-09T03:26:44.393Z,0.00
2018-10-09T03:27:44.399Z,0.00
2018-10-09T03:28:44.397Z,0.00
2018-10-09T03:29:44.361Z,0.00
2018-10-09T03:30:44.386Z,0.00
2018-10-09T03:31:44.362Z,0.00
2018-10-09T03:32:44.356Z,0.00
2018-10-09T03:33:44.323Z,0.00
2018-10-09T03:34:44.312Z,0.00
2018-10-09T03:35:44.323Z,0.00
2018-10-09T03:36:44.314Z,0.00
2018-10-09T03:37:44.283Z,0.00
2018-10-09T03:38:44.270Z,0.00
2018-10-09T03:39:44.255Z,0.00
2018-10-09T03:40:44.273Z,0.00
2018-10-09T03:41:44.229Z,0.00
2018-10-09T03:42:44.226Z,0.00
2018-10-09T03:43:44.220Z,0.00
2018-10-09T03:44:44.200Z,0.00
2018-10-09T03:45:44.215Z,0.00
2018-10-09T03:46:44.177Z,0.00
2018-10-09T03:47:44.169Z,0.00
2018-10-09T03:48:44.166Z,0.00
2018-10-09T03:49:44.158Z,0.00
2018-10-09T03:50:44.164Z,0.00
2018-10-09T03:51:44.128Z,0.00
2018-10-09T03:52:44.111Z,0.00
2018-10-09T03:53:44.114Z,0.00
2018-10-09T03:54:44.089Z,0.00
2018-10-09T03:55:44.107Z,0.00
2018-10-09T03:56:44.065Z,0.00
2018-10-09T03:57:44.055Z,0.00
2018-10-09T03:58:44.079Z,0.00
2018-10-09T03:59:44.055Z,0.00
2018-10-09T04:00:44.051Z,0.00
2018-10-09T04:01:44.045Z,0.00
2018-10-09T04:02:43.999Z,0.00
2018-10-09T04:03:43.991Z,0.00
2018-10-09T04:04:43.989Z,0.00
2018-10-09T04:05:44.010Z,0.00
2018-10-09T04:06:43.962Z,0.00
2018-10-09T04:07:43.959Z,0.00
2018-10-09T04:08:43.937Z,0.00
2018-10-09T04:09:43.923Z,0.00
2018-10-09T04:10:43.941Z,0.00
2018-10-09T04:11:43.903Z,0.00
2018-10-09T04:12:43.923Z,0.00
2018-10-09T04:13:43.879Z,0.00
2018-10-09T04:14:43.890Z,0.00
2018-10-09T04:15:43.892Z,0.00
2018-10-09T04:16:43.850Z,0.00
2018-10-09T04:17:43.842Z,0.00
2018-10-09T04:18:43.835Z,0.00
2018-10-09T04:19:43.818Z,0.00
2018-10-09T04:20:43.838Z,0.00
2018-10-09T04:21:43.795Z,0.00
2018-10-09T04:22:43.823Z,0.00
2018-10-09T04:23:43.770Z,0.00
2018-10-09T04:24:43.765Z,0.00
2018-10-09T04:25:43.786Z,0.00
2018-10-09T04:26:43.741Z,0.00
2018-10-09T04:27:43.732Z,0.00
2018-10-09T04:28:43.721Z,0.00
2018-10-09T04:29:43.709Z,0.00
2018-10-09T04:30:43.720Z,0.00
2018-10-09T04:31:43.689Z,0.00
2018-10-09T04:32:43.692Z,0.00
2018-10-09T04:33:43.681Z,0.00
2018-10-09T04:34:43.653Z,0.00
2018-10-09T04:35:43.769Z,0.00
2018-10-09T04:36:43.629Z,0.00
2018-10-09T04:37:43.626Z,0.00
2018-10-09T04:38:43.608Z,0.00
2018-10-09T04:39:43.612Z,0.00
2018-10-09T04:40:43.589Z,0.00
2018-10-09T04:41:43.601Z,0.00
2018-10-09T04:42:43.566Z,0.00
2018-10-09T04:43:43.565Z,0.00
2018-10-09T04:44:43.546Z,0.00
2018-10-09T04:45:43.538Z,0.00
2018-10-09T04:46:43.550Z,0.00
2018-10-09T04:47:43.522Z,0.00
2018-10-09T04:48:43.504Z,0.00
2018-10-09T04:49:43.492Z,0.00
2018-10-09T04:50:43.479Z,0.00
2018-10-09T04:51:43.490Z,0.00
2018-10-09T04:52:43.471Z,0.00
2018-10-09T04:53:43.472Z,0.00
2018-10-09T04:54:43.442Z,0.00
2018-10-09T04:55:43.439Z,0.00
2018-10-09T04:56:43.440Z,0.00
2018-10-09T04:57:43.407Z,0.00
2018-10-09T04:58:43.394Z,0.00
2018-10-09T04:59:43.389Z,0.00
2018-10-09T05:00:43.372Z,0.00
2018-10-09T05:01:43.439Z,0.00
2018-10-09T05:02:43.346Z,0.00
2018-10-09T05:03:43.340Z,0.00
2018-10-09T05:04:43.346Z,0.00
2018-10-09T05:05:43.323Z,0.00
2018-10-09T05:06:43.334Z,0.00
2018-10-09T05:07:43.301Z,0.00
2018-10-09T05:08:43.305Z,0.00
2018-10-09T05:09:43.270Z,0.00
2018-10-09T05:10:43.265Z,0.00
2018-10-09T05:11:43.348Z,0.00
2018-10-09T05:12:43.236Z,0.00
2018-10-09T05:13:43.237Z,4.00
2018-10-09T05:14:43.252Z,4.00
2018-10-09T05:15:43.247Z,0.00
2018-10-09T05:16:43.219Z,0.00
2018-10-09T05:17:43.204Z,4.00
2018-10-09T05:18:43.198Z,4.00
2018-10-09T05:19:43.192Z,4.00
2018-10-09T05:20:43.156Z,8.00
2018-10-09T05:21:43.175Z,8.00
2018-10-09T05:22:43.146Z,8.00
2018-10-09T05:23:43.127Z,8.00
2018-10-09T05:24:43.124Z,12.00
2018-10-09T05:25:43.096Z,16.00
2018-10-09T05:26:43.116Z,16.00
2018-10-09T05:27:43.122Z,20.00
2018-10-09T05:28:43.064Z,24.00
2018-10-09T05:29:43.066Z,28.00
2018-10-09T05:30:43.063Z,32.00
2018-10-09T05:31:43.155Z,40.00
2018-10-09T05:32:43.073Z,44.00
2018-10-09T05:33:43.024Z,48.00
2018-10-09T05:34:43.001Z,56.00
2018-10-09T05:35:42.992Z,60.00
2018-10-09T05:36:43.008Z,72.00
2018-10-09T05:37:43.041Z,84.00
2018-10-09T05:38:42.964Z,88.00
2018-10-09T05:39:42.973Z,96.00
2018-10-09T05:40:42.941Z,104.00
2018-10-09T05:41:42.948Z,116.00
2018-10-09T05:42:42.920Z,128.00
2018-10-09T05:43:42.910Z,140.00
2018-10-09T05:44:42.966Z,152.00
2018-10-09T05:45:42.936Z,164.00
2018-10-09T05:46:42.902Z,176.00
2018-10-09T05:47:42.880Z,192.00
2018-10-09T05:48:42.850Z,212.00
2018-10-09T05:49:42.841Z,228.00
2018-10-09T05:50:42.829Z,252.00
2018-10-09T05:51:42.858Z,272.00
2018-10-09T05:52:42.888Z,292.00
2018-10-09T05:53:42.796Z,320.00
2018-10-09T05:54:42.788Z,344.00
2018-10-09T05:55:42.799Z,376.00
2018-10-09T05:56:42.788Z,404.00
2018-10-09T05:57:42.758Z,432.00
2018-10-09T05:58:42.743Z,468.00
2018-10-09T05:59:42.731Z,500.00
2018-10-09T06:00:42.730Z,532.00
2018-10-09T06:01:42.763Z,564.00
2018-10-09T06:02:42.705Z,596.00
2018-10-09T06:03:42.691Z,628.00
2018-10-09T06:04:42.679Z,664.00
2018-10-09T06:05:42.707Z,696.00
2018-10-09T06:06:42.689Z,724.00
2018-10-09T06:07:42.646Z,756.00
2018-10-09T06:08:42.635Z,788.00
2018-10-09T06:09:42.628Z,816.00
2018-10-09T06:10:42.616Z,848.00
2018-10-09T06:11:42.656Z,880.00
2018-10-09T06:12:42.593Z,912.00
2018-10-09T06:13:42.583Z,936.00
2018-10-09T06:14:42.570Z,968.00
2018-10-09T06:15:42.800Z,988.00
2018-10-09T06:16:42.587Z,1016.00
2018-10-09T06:17:42.542Z,1040.00
2018-10-09T06:18:42.541Z,1064.00
2018-10-09T06:19:42.534Z,1092.00
2018-10-09T06:20:42.502Z,1120.00
2018-10-09T06:21:42.530Z,1148.00
2018-10-09T06:22:42.486Z,1172.00
2018-10-09T06:23:42.484Z,1204.00
2018-10-09T06:24:42.463Z,1232.00
2018-10-09T06:25:42.453Z,1264.00
2018-10-09T06:26:42.471Z,1292.00
2018-10-09T06:27:42.432Z,1320.00
2018-10-09T06:28:42.417Z,1352.00
2018-10-09T06:29:42.405Z,1388.00
2018-10-09T06:30:42.398Z,1424.00
2018-10-09T06:31:42.415Z,1468.00
2018-10-09T06:32:42.380Z,1508.00
2018-10-09T06:33:42.366Z,1556.00
2018-10-09T06:34:42.361Z,1596.00
2018-10-09T06:35:42.343Z,1644.00
2018-10-09T06:36:42.435Z,1688.00
2018-10-09T06:37:42.334Z,1732.00
2018-10-09T06:38:42.395Z,1784.00
2018-10-09T06:39:42.305Z,1832.00
2018-10-09T06:40:42.344Z,1884.00
2018-10-09T06:41:42.317Z,1936.00
2018-10-09T06:42:42.302Z,1984.00
2018-10-09T06:43:42.257Z,2024.00
2018-10-09T06:44:42.273Z,2068.00
2018-10-09T06:45:42.235Z,2096.00
2018-10-09T06:46:42.254Z,2132.00
2018-10-09T06:47:42.311Z,2164.00
2018-10-09T06:48:42.214Z,2176.00
2018-10-09T06:49:42.193Z,2212.00
2018-10-09T06:50:42.203Z,2256.00
2018-10-09T06:51:42.235Z,2288.00
2018-10-09T06:52:42.162Z,2308.00
2018-10-09T06:53:42.208Z,2304.00
2018-10-09T06:54:42.378Z,2328.00
2018-10-09T06:55:42.135Z,2392.00
2018-10-09T06:56:42.141Z,2440.00
2018-10-09T06:57:42.113Z,2472.00
2018-10-09T06:58:42.100Z,2540.00
2018-10-09T06:59:42.104Z,2612.00
2018-10-09T07:00:42.080Z,2696.00
2018-10-09T07:01:42.105Z,2752.00
2018-10-09T07:02:42.056Z,2804.00
2018-10-09T07:03:42.045Z,2848.00
2018-10-09T07:04:42.057Z,2868.00
2018-10-09T07:05:42.027Z,2888.00
2018-10-09T07:06:42.046Z,2936.00
2018-10-09T07:07:42.006Z,2976.00
2018-10-09T07:08:41.999Z,3028.00
2018-10-09T07:09:41.991Z,3076.00
2018-10-09T07:10:41.977Z,3128.00
2018-10-09T07:11:42.068Z,3188.00
2018-10-09T07:12:41.990Z,3228.00
2018-10-09T07:13:41.940Z,3256.00
2018-10-09T07:14:41.929Z,3292.00
2018-10-09T07:15:41.916Z,3360.00
2018-10-09T07:16:41.912Z,3416.00
2018-10-09T07:17:41.951Z,3412.00
2018-10-09T07:18:41.906Z,3424.00
2018-10-09T07:19:41.924Z,3440.00
2018-10-09T07:20:41.874Z,3484.00
2018-10-09T07:21:41.851Z,3480.00
2018-10-09T07:22:41.868Z,3544.00
2018-10-09T07:23:41.877Z,3632.00
2018-10-09T07:24:41.825Z,3728.00
2018-10-09T07:25:41.822Z,3760.00
2018-10-09T07:26:41.800Z,3824.00
2018-10-09T07:27:41.858Z,3884.00
2018-10-09T07:28:41.776Z,3928.00
2018-10-09T07:29:41.774Z,3980.00
2018-10-09T07:30:41.757Z,3984.00
2018-10-09T07:31:41.752Z,3988.00
2018-10-09T07:32:41.767Z,4052.00
2018-10-09T07:33:41.753Z,4176.00
2018-10-09T07:34:41.719Z,4276.00
2018-10-09T07:35:41.723Z,4396.00
2018-10-09T07:36:41.694Z,4460.00
2018-10-09T07:37:41.758Z,4584.00
2018-10-09T07:38:41.681Z,4656.00
2018-10-09T07:39:41.669Z,4764.00
2018-10-09T07:40:41.652Z,4864.00
2018-10-09T07:41:41.638Z,4784.00
2018-10-09T07:42:41.666Z,4856.00
2018-10-09T07:43:41.615Z,4872.00
2018-10-09T07:44:41.611Z,5084.00
2018-10-09T07:45:41.610Z,5148.00
2018-10-09T07:46:41.603Z,5364.00
2018-10-09T07:47:41.618Z,5436.00
2018-10-09T07:48:41.573Z,5408.00
2018-10-09T07:49:41.553Z,5340.00
2018-10-09T07:50:41.540Z,5568.00
2018-10-09T07:51:41.541Z,5748.00
2018-10-09T07:52:41.586Z,5940.00
2018-10-09T07:53:41.535Z,6024.00
2018-10-09T07:54:41.502Z,6140.00
2018-10-09T07:55:41.557Z,6276.00
2018-10-09T07:56:41.474Z,6364.00
2018-10-09T07:57:41.465Z,6448.00
2018-10-09T07:58:41.650Z,6456.00
2018-10-09T07:59:41.443Z,6464.00
2018-10-09T08:00:41.441Z,6456.00
2018-10-09T08:01:41.421Z,6496.00
2018-10-09T08:02:41.429Z,6480.00
2018-10-09T08:03:41.404Z,6456.00
2018-10-09T08:04:41.457Z,6396.00
2018-10-09T08:05:41.381Z,6408.00
2018-10-09T08:06:41.382Z,6332.00
2018-10-09T08:07:41.362Z,6264.00
2018-10-09T08:08:41.393Z,6220.00
2018-10-09T08:09:41.360Z,6120.00
2018-10-09T08:10:41.397Z,6004.00
2018-10-09T08:11:41.329Z,5900.00
2018-10-09T08:12:41.305Z,5812.00
2018-10-09T08:13:41.292Z,5752.00
2018-10-09T08:14:41.318Z,5664.00
2018-10-09T08:15:41.272Z,5492.00
2018-10-09T08:16:41.265Z,5452.00
2018-10-09T08:17:41.257Z,5376.00
2018-10-09T08:18:41.240Z,5288.00
2018-10-09T08:19:41.272Z,5224.00
2018-10-09T08:20:41.219Z,5124.00
2018-10-09T08:21:41.207Z,5104.00
2018-10-09T08:22:41.346Z,5092.00
2018-10-09T08:23:41.188Z,5152.00
2018-10-09T08:24:41.199Z,5160.00
2018-10-09T08:25:41.165Z,5180.00
2018-10-09T08:26:41.155Z,5180.00
2018-10-09T08:27:41.150Z,5244.00
2018-10-09T08:28:41.145Z,5316.00
2018-10-09T08:29:41.146Z,5444.00
2018-10-09T08:30:41.154Z,5584.00
2018-10-09T08:31:41.101Z,5692.00
2018-10-09T08:32:41.092Z,5824.00
2018-10-09T08:33:41.090Z,5916.00
2018-10-09T08:34:41.183Z,6076.00
2018-10-09T08:35:41.060Z,6236.00
2018-10-09T08:36:41.050Z,6392.00
2018-10-09T08:37:41.051Z,6628.00
2018-10-09T08:38:41.042Z,6932.00
2018-10-09T08:39:41.061Z,7272.00
2018-10-09T08:40:41.020Z,7624.00
2018-10-09T08:41:41.002Z,7968.00
2018-10-09T08:42:41.002Z,8292.00
2018-10-09T08:43:41.008Z,8632.00
2018-10-09T08:44:40.987Z,8932.00
2018-10-09T08:45:40.959Z,9216.00
2018-10-09T08:46:40.953Z,9564.00
2018-10-09T08:47:40.933Z,9840.00
2018-10-09T08:48:40.922Z,10092.00
2018-10-09T08:49:40.932Z,10312.00
2018-10-09T08:50:40.956Z,10528.00
2018-10-09T08:51:40.898Z,10676.00
2018-10-09T08:52:40.882Z,10908.00
2018-10-09T08:53:40.871Z,11144.00
2018-10-09T08:54:40.889Z,11352.00
2018-10-09T08:55:40.859Z,11496.00
2018-10-09T08:56:40.834Z,11660.00
2018-10-09T08:57:40.864Z,11628.00
2018-10-09T08:58:40.812Z,11600.00
2018-10-09T08:59:40.831Z,11532.00
2018-10-09T09:00:40.805Z,11388.00
2018-10-09T09:01:40.780Z,11240.00
2018-10-09T09:02:40.773Z,11040.00
2018-10-09T09:03:40.862Z,10848.00
2018-10-09T09:04:40.770Z,10632.00
2018-10-09T09:05:40.747Z,10492.00
2018-10-09T09:06:40.770Z,10308.00
2018-10-09T09:07:40.717Z,10060.00
2018-10-09T09:08:40.705Z,9792.00
2018-10-09T09:09:40.738Z,9524.00
2018-10-09T09:10:40.689Z,9248.00
2018-10-09T09:11:40.676Z,8924.00
2018-10-09T09:12:40.695Z,8528.00
2018-10-09T09:13:40.656Z,8144.00
2018-10-09T09:14:40.651Z,7908.00
2018-10-09T09:15:40.653Z,7552.00
2018-10-09T09:16:40.661Z,7256.00
2018-10-09T09:17:40.608Z,7000.00
2018-10-09T09:18:40.606Z,6688.00
2018-10-09T09:19:40.617Z,6352.00
2018-10-09T09:20:40.640Z,6060.00
2018-10-09T09:21:40.591Z,5756.00
2018-10-09T09:22:40.583Z,5520.00
2018-10-09T09:23:40.544Z,5264.00
2018-10-09T09:24:40.578Z,5028.00
2018-10-09T09:25:40.535Z,4820.00
2018-10-09T09:26:40.632Z,4644.00
2018-10-09T09:27:40.560Z,4492.00
2018-10-09T09:28:40.500Z,4360.00
2018-10-09T09:29:40.570Z,4260.00
2018-10-09T09:30:40.485Z,4240.00
2018-10-09T09:31:40.459Z,4232.00
2018-10-09T09:32:40.459Z,4216.00
2018-10-09T09:33:40.444Z,4260.00
2018-10-09T09:34:40.464Z,4304.00
2018-10-09T09:35:40.421Z,4308.00
2018-10-09T09:36:40.421Z,4320.00
2018-10-09T09:37:40.395Z,4308.00
2018-10-09T09:38:40.394Z,4236.00
2018-10-09T09:39:40.377Z,4212.00
2018-10-09T09:40:40.396Z,4288.00
2018-10-09T09:41:40.363Z,4312.00
2018-10-09T09:42:40.340Z,4380.00
2018-10-09T09:43:40.339Z,4436.00
2018-10-09T09:44:40.322Z,4516.00
2018-10-09T09:45:40.389Z,4612.00
2018-10-09T09:46:40.329Z,4588.00
2018-10-09T09:47:40.287Z,4656.00
2018-10-09T09:48:40.280Z,4904.00
2018-10-09T09:49:40.277Z,4912.00
2018-10-09T09:50:40.254Z,4884.00
2018-10-09T09:51:40.290Z,4856.00
2018-10-09T09:52:40.238Z,4900.00
2018-10-09T09:53:40.281Z,4884.00
2018-10-09T09:54:40.214Z,4920.00
2018-10-09T09:55:40.213Z,4988.00
2018-10-09T09:56:40.222Z,5048.00
2018-10-09T09:57:40.198Z,5132.00
2018-10-09T09:58:40.408Z,5160.00
2018-10-09T09:59:40.191Z,5268.00
2018-10-09T10:00:40.170Z,5404.00
2018-10-09T10:01:40.143Z,5404.00
2018-10-09T10:02:40.156Z,5472.00
2018-10-09T10:03:40.185Z,5480.00
2018-10-09T10:04:40.115Z,5488.00
2018-10-09T10:05:40.104Z,5476.00
2018-10-09T10:06:40.082Z,5476.00
2018-10-09T10:07:40.097Z,5460.00
2018-10-09T10:08:40.061Z,5436.00
2018-10-09T10:09:40.060Z,5456.00
2018-10-09T10:10:40.041Z,5512.00
2018-10-09T10:11:40.048Z,5472.00
2018-10-09T10:12:40.062Z,5436.00
2018-10-09T10:13:40.008Z,5432.00
2018-10-09T10:14:39.997Z,5448.00
2018-10-09T10:15:40.048Z,5476.00
2018-10-09T10:16:39.985Z,5476.00
2018-10-09T10:17:39.991Z,5556.00
2018-10-09T10:18:39.955Z,5592.00
2018-10-09T10:19:39.943Z,5600.00
2018-10-09T10:20:39.934Z,5564.00
2018-10-09T10:21:39.945Z,5604.00
2018-10-09T10:22:40.061Z,5612.00
2018-10-09T10:23:39.910Z,5632.00
2018-10-09T10:24:39.888Z,5648.00
2018-10-09T10:25:39.880Z,5628.00
2018-10-09T10:26:39.886Z,5632.00
2018-10-09T10:27:39.858Z,5592.00
2018-10-09T10:28:39.877Z,5596.00
2018-10-09T10:29:39.841Z,5604.00
2018-10-09T10:30:39.823Z,5588.00
2018-10-09T10:31:39.830Z,5576.00
2018-10-09T10:32:39.804Z,5592.00
2018-10-09T10:33:39.830Z,5624.00
2018-10-09T10:34:39.782Z,5632.00
2018-10-09T10:35:39.840Z,5696.00
2018-10-09T10:36:39.820Z,5744.00
2018-10-09T10:37:39.747Z,5808.00
2018-10-09T10:38:39.743Z,5808.00
2018-10-09T10:39:39.789Z,5832.00
2018-10-09T10:40:39.721Z,5852.00
2018-10-09T10:41:39.725Z,5864.00
2018-10-09T10:42:39.696Z,5900.00
2018-10-09T10:43:39.687Z,5936.00
2018-10-09T10:44:39.704Z,5964.00
2018-10-09T10:45:39.662Z,5920.00
2018-10-09T10:46:39.651Z,5808.00
2018-10-09T10:47:39.658Z,5780.00
2018-10-09T10:48:39.631Z,5728.00
2018-10-09T10:49:39.643Z,5676.00
2018-10-09T10:50:39.609Z,5524.00
2018-10-09T10:51:39.604Z,5348.00
2018-10-09T10:52:39.585Z,5204.00
2018-10-09T10:53:39.575Z,5116.00
2018-10-09T10:54:39.594Z,5200.00
2018-10-09T10:55:39.555Z,5376.00
2018-10-09T10:56:39.542Z,5420.00
2018-10-09T10:57:39.536Z,5524.00
2018-10-09T10:58:39.525Z,5500.00
2018-10-09T10:59:39.511Z,5532.00
2018-10-09T11:00:39.524Z,5560.00
2018-10-09T11:01:39.521Z,5724.00
2018-10-09T11:02:39.479Z,6008.00
2018-10-09T11:03:39.465Z,6224.00
2018-10-09T11:04:39.456Z,6396.00
2018-10-09T11:05:39.484Z,6640.00
2018-10-09T11:06:39.437Z,6788.00
2018-10-09T11:07:39.422Z,7092.00
2018-10-09T11:08:39.411Z,7348.00
2018-10-09T11:09:39.402Z,7596.00
2018-10-09T11:10:39.397Z,7916.00
2018-10-09T11:11:39.402Z,8308.00
2018-10-09T11:12:39.368Z,8712.00
2018-10-09T11:13:39.356Z,9148.00
2018-10-09T11:14:39.475Z,9404.00
2018-10-09T11:15:39.335Z,9772.00
2018-10-09T11:16:39.347Z,10092.00
2018-10-09T11:17:39.314Z,10348.00
2018-10-09T11:18:39.302Z,10552.00
2018-10-09T11:19:39.297Z,10640.00
2018-10-09T11:20:39.281Z,10596.00
2018-10-09T11:21:39.312Z,10952.00
2018-10-09T11:22:39.260Z,11248.00
2018-10-09T11:23:39.253Z,11596.00
2018-10-09T11:24:39.239Z,11972.00
2018-10-09T11:25:39.230Z,12224.00
2018-10-09T11:26:39.242Z,12412.00
2018-10-09T11:27:39.215Z,12564.00
2018-10-09T11:28:39.196Z,12524.00
2018-10-09T11:29:39.189Z,12364.00
2018-10-09T11:30:39.172Z,12476.00
2018-10-09T11:31:39.185Z,12500.00
2018-10-09T11:32:39.305Z,12392.00
2018-10-09T11:33:39.141Z,12260.00
2018-10-09T11:34:39.129Z,12216.00
2018-10-09T11:35:39.142Z,12112.00
2018-10-09T11:36:39.134Z,12004.00
2018-10-09T11:37:39.100Z,11896.00
2018-10-09T11:38:39.086Z,11756.00
2018-10-09T11:39:39.082Z,11712.00
2018-10-09T11:40:39.065Z,11668.00
2018-10-09T11:41:39.078Z,11560.00
2018-10-09T11:42:39.099Z,11404.00
2018-10-09T11:43:39.038Z,11300.00
2018-10-09T11:44:39.022Z,11156.00
2018-10-09T11:45:39.011Z,10956.00
2018-10-09T11:46:39.030Z,10660.00
2018-10-09T11:47:38.993Z,10320.00
2018-10-09T11:48:38.983Z,10364.00
2018-10-09T11:49:38.974Z,10320.00
2018-10-09T11:50:38.958Z,10204.00
2018-10-09T11:51:38.947Z,10060.00
2018-10-09T11:52:38.964Z,9984.00
2018-10-09T11:53:38.931Z,9968.00
2018-10-09T11:54:38.914Z,9812.00
2018-10-09T11:55:38.907Z,9508.00
2018-10-09T11:56:38.894Z,9300.00
2018-10-09T11:57:38.908Z,9256.00
2018-10-09T11:58:38.917Z,9172.00
2018-10-09T11:59:38.863Z,9132.00
2018-10-09T12:00:38.863Z,9028.00
2018-10-09T12:01:38.852Z,9092.00
2018-10-09T12:02:38.877Z,9184.00
2018-10-09T12:03:38.826Z,9324.00
2018-10-09T12:04:38.807Z,9504.00
2018-10-09T12:05:38.821Z,9836.00
2018-10-09T12:06:38.791Z,10064.00
2018-10-09T12:07:38.777Z,10176.00
2018-10-09T12:08:38.812Z,10280.00
2018-10-09T12:09:38.756Z,10364.00
2018-10-09T12:10:38.751Z,10448.00
2018-10-09T12:11:38.745Z,10552.00
2018-10-09T12:12:38.722Z,10648.00
2018-10-09T12:13:38.752Z,10672.00
2018-10-09T12:14:38.706Z,10948.00
2018-10-09T12:15:38.738Z,10980.00
2018-10-09T12:16:38.681Z,11116.00
2018-10-09T12:17:38.669Z,11276.00
2018-10-09T12:18:38.690Z,11592.00
2018-10-09T12:19:38.657Z,11996.00
2018-10-09T12:20:38.654Z,12764.00
2018-10-09T12:21:38.762Z,15496.00
2018-10-09T12:22:38.617Z,20640.00
2018-10-09T12:23:38.627Z,25120.00
2018-10-09T12:24:38.605Z,24960.00
2018-10-09T12:25:38.587Z,19776.00
2018-10-09T12:26:38.583Z,18816.00
2018-10-09T12:27:38.565Z,22784.00
2018-10-09T12:28:38.577Z,27904.00
2018-10-09T12:29:38.540Z,31072.00
2018-10-09T12:30:38.580Z,29056.00
2018-10-09T12:31:38.524Z,15504.00
2018-10-09T12:32:38.510Z,20000.00
2018-10-09T12:33:38.525Z,18912.00
2018-10-09T12:34:38.487Z,17152.00